Time;durP1;ratioP1;P1;durP2;ratioP2;P2;SDS_P1;SDS_P2;PMS_P1;PMS_P2;Temp;Humidity;BMP_temperature;BMP_pressure;BME280_temperature;BME280_humidity;BME280_pressure;Samples;Min_cycle;Max_cycle;Signal;HPM_P1;HPM_P2
2022/05/26 00:02:03;;;;;;;11.88;6.22;;;;;;;15.12;74.13;101680.50;4971114;28;20034;-71
2022/05/26 00:04:28;;;;;;;10.70;5.57;;;;;;;15.12;74.03;101687.50;4970537;28;20023;-71
2022/05/26 00:06:55;;;;;;;9.98;5.30;;;;;;;15.16;72.76;101680.56;4971823;28;20025;-70
2022/05/26 00:09:20;;;;;;;13.80;6.03;;;;;;;15.15;74.22;101681.41;4971607;28;20022;-71
2022/05/26 00:11:46;;;;;;;11.32;5.70;;;;;;;15.15;74.25;101684.03;4971334;28;20089;-71
2022/05/26 00:14:11;;;;;;;13.68;6.22;;;;;;;15.12;73.17;101683.13;4971905;28;20056;-71
2022/05/26 00:16:39;;;;;;;9.68;5.63;;;;;;;15.10;74.52;101682.22;4970389;28;20093;-71
2022/05/26 00:19:04;;;;;;;12.18;6.30;;;;;;;15.11;74.44;101686.59;4971765;28;20027;-71
2022/05/26 00:21:30;;;;;;;10.45;5.72;;;;;;;15.13;72.96;101695.41;4969504;28;20561;-71
2022/05/26 00:23:57;;;;;;;10.90;6.28;;;;;;;15.12;73.71;101688.38;4971764;28;20465;-71
2022/05/26 00:26:23;;;;;;;10.32;6.15;;;;;;;15.11;73.87;101704.97;4970861;28;20053;-75
2022/05/26 00:28:48;;;;;;;13.40;6.50;;;;;;;15.06;74.97;101706.66;4971647;28;20026;-74
2022/05/26 00:31:13;;;;;;;11.38;6.00;;;;;;;15.07;73.47;101695.28;4970653;28;20101;-75
2022/05/26 00:33:39;;;;;;;9.65;6.13;;;;;;;15.06;74.82;101709.28;4967155;28;20497;-75
2022/05/26 00:36:06;;;;;;;14.43;6.50;;;;;;;15.06;74.86;101709.28;4970944;28;20110;-76
2022/05/26 00:38:32;;;;;;;11.27;6.45;;;;;;;15.05;75.33;101725.00;4969334;28;20019;-75
2022/05/26 00:41:10;;;;;;;13.05;6.32;;;;;;;15.04;74.45;101708.34;4970540;28;20030;-75
2022/05/26 00:43:41;;;;;;;13.33;6.90;;;;;;;15.05;74.71;101712.75;4968942;28;20113;-74
2022/05/26 00:46:22;;;;;;;13.55;6.85;;;;;;;15.03;75.05;101714.44;4961227;28;20026;-74
2022/05/26 00:48:53;;;;;;;11.88;6.80;;;;;;;15.04;75.26;101710.97;4969542;28;21335;-74
2022/05/26 00:51:26;;;;;;;14.13;6.72;;;;;;;15.05;75.29;101706.63;4971417;28;20019;-74
2022/05/26 00:53:56;;;;;;;14.02;6.43;;;;;;;15.06;74.29;101698.78;4970524;28;20039;-75
2022/05/26 00:56:52;;;;;;;14.07;6.43;;;;;;;15.08;73.85;101704.06;4970955;28;20072;-74
2022/05/26 00:59:24;;;;;;;14.65;6.30;;;;;;;15.06;75.28;101709.28;4970688;28;20034;-74
2022/05/26 01:01:50;;;;;;;15.30;6.75;;;;;;;15.05;75.39;101704.00;4969572;28;20030;-75
2022/05/26 01:04:19;;;;;;;14.35;6.53;;;;;;;15.03;75.70;101703.06;4971373;28;20035;-74
2022/05/26 01:06:50;;;;;;;16.88;6.95;;;;;;;15.04;75.62;101704.84;4970919;28;20417;-75
2022/05/26 01:09:15;;;;;;;15.57;6.88;;;;;;;15.03;75.70;101709.19;4969950;28;20115;-76
2022/05/26 01:11:43;;;;;;;13.77;6.85;;;;;;;15.02;75.88;101709.16;4970556;28;20110;-75
2022/05/26 01:14:18;;;;;;;13.88;6.63;;;;;;;15.02;74.00;101707.44;4971240;28;20027;-76
2022/05/26 01:16:43;;;;;;;13.48;7.20;;;;;;;15.03;75.41;101701.31;4970695;28;20030;-75
2022/05/26 01:19:43;;;;;;;16.27;7.80;;;;;;;15.05;75.30;101710.13;4971257;28;20097;-75
2022/05/26 01:22:44;;;;;;;20.63;7.43;;;;;;;15.04;75.72;101713.59;4971613;28;20305;-75
2022/05/26 01:25:28;;;;;;;19.15;7.57;;;;;;;15.03;75.71;101718.81;4972728;28;20108;-74
2022/05/26 01:28:05;;;;;;;15.13;7.18;;;;;;;15.04;75.54;101720.59;4973152;28;20035;-74
2022/05/26 01:30:56;;;;;;;17.85;7.38;;;;;;;15.05;75.34;101727.63;4974621;28;20394;-74
2022/05/26 01:33:34;;;;;;;16.67;8.27;;;;;;;15.02;76.15;101728.44;4972673;28;20026;-74
2022/05/26 01:36:05;;;;;;;18.92;8.32;;;;;;;15.00;76.21;101722.25;4974269;28;20517;-74
2022/05/26 01:38:42;;;;;;;18.15;8.93;;;;;;;14.98;76.44;101721.38;4973995;28;20027;-74
2022/05/26 01:41:37;;;;;;;20.35;8.52;;;;;;;15.00;75.20;101727.50;4972927;28;20090;-76
2022/05/26 01:44:22;;;;;;;16.00;8.45;;;;;;;15.01;75.81;101725.78;4973328;28;20039;-74
2022/05/26 01:46:50;;;;;;;19.63;8.32;;;;;;;15.00;75.43;101727.50;4973110;28;20034;-75
2022/05/26 01:49:23;;;;;;;18.75;8.48;;;;;;;14.99;76.41;101728.38;4973378;28;20044;-74
2022/05/26 01:51:58;;;;;;;19.92;9.73;;;;;;;15.01;76.53;101738.91;4973765;28;20573;-74
2022/05/26 01:54:31;;;;;;;22.45;9.55;;;;;;;15.01;76.67;101736.28;4975130;28;20035;-74
2022/05/26 01:57:10;;;;;;;20.20;9.70;;;;;;;15.00;76.31;101745.88;4973459;28;20023;-75
2022/05/26 01:59:53;;;;;;;22.30;9.80;;;;;;;15.01;75.88;101742.41;4974235;28;20034;-75
2022/05/26 02:02:25;;;;;;;24.00;10.10;;;;;;;14.96;76.42;101741.44;4972296;28;20050;-76
2022/05/26 02:05:01;;;;;;;21.95;10.32;;;;;;;14.98;75.91;101741.47;4974105;28;20054;-75
2022/05/26 02:07:42;;;;;;;26.85;10.55;;;;;;;14.99;76.25;101744.13;4972017;28;20026;-74
2022/05/26 02:10:20;;;;;;;23.45;10.52;;;;;;;14.99;76.37;101744.13;4960596;28;20030;-74
2022/05/26 02:13:00;;;;;;;28.27;11.60;;;;;;;15.00;76.46;101748.50;4972749;28;20034;-75
2022/05/26 02:15:35;;;;;;;35.40;12.30;;;;;;;14.98;76.69;101754.59;4974092;28;20530;-76
2022/05/26 02:18:32;;;;;;;24.10;11.18;;;;;;;14.98;76.57;101751.97;4972992;28;20097;-76
2022/05/26 02:21:12;;;;;;;23.00;11.38;;;;;;;14.91;77.46;101753.59;4972404;28;20466;-75
2022/05/26 02:24:05;;;;;;;23.80;11.85;;;;;;;14.91;77.35;101764.09;4973960;28;20019;-75
2022/05/26 02:26:32;;;;;;;24.45;11.48;;;;;;;14.89;77.70;101764.06;4973134;28;20049;-76
2022/05/26 02:31:43;;;;;;;22.30;12.10;;;;;;;14.92;77.20;101766.72;4973255;28;20038;-75
2022/05/26 02:34:09;;;;;;;22.10;11.75;;;;;;;14.91;77.29;101766.72;4972869;28;20031;-75
2022/05/26 02:36:37;;;;;;;24.02;11.73;;;;;;;14.90;77.38;101764.94;4973744;28;20122;-76
2022/05/26 02:39:04;;;;;;;25.67;11.95;;;;;;;14.90;77.39;101771.09;4971958;28;20104;-76
2022/05/26 02:41:31;;;;;;;26.85;12.88;;;;;;;14.90;76.18;101770.19;4972561;28;20497;-76
2022/05/26 02:43:57;;;;;;;29.55;12.50;;;;;;;14.88;77.36;101764.91;4972035;28;20035;-75
2022/05/26 02:46:46;;;;;;;25.02;12.63;;;;;;;14.87;77.48;101770.13;4984859;28;20033;-75
2022/05/26 02:49:17;;;;;;;;;;;;;;;14.94;75.93;101772.00;4971975;28;20026;-76
2022/05/26 02:52:02;;;;;;;20.42;10.95;;;;;;;14.89;76.76;101774.56;4973471;28;19910;-76
2022/05/26 02:54:48;;;;;;;25.60;12.30;;;;;;;14.88;77.03;101771.91;4971928;28;20050;-77
2022/05/26 02:58:04;;;;;;;27.88;12.35;;;;;;;14.86;76.93;101777.13;4972182;28;20030;-76
2022/05/26 03:00:38;;;;;;;28.75;11.98;;;;;;;14.86;77.11;101776.22;4963047;28;20043;-75
2022/05/26 03:03:14;;;;;;;24.95;12.05;;;;;;;14.85;77.33;101779.72;4969715;28;20854;-75
2022/05/26 03:06:00;;;;;;;30.23;12.40;;;;;;;14.85;77.18;101777.97;4973158;28;20027;-75
2022/05/26 03:08:28;;;;;;;24.63;12.30;;;;;;;14.81;77.94;101780.50;4997600;28;20042;-75
2022/05/26 03:11:03;;;;;;;27.35;12.48;;;;;;;14.84;77.19;101780.56;4973184;28;20033;-76
2022/05/26 03:13:29;;;;;;;24.77;12.40;;;;;;;14.81;77.65;101781.38;4971750;28;20478;-74
2022/05/26 03:15:54;;;;;;;26.75;12.63;;;;;;;14.83;77.29;101784.94;4970956;28;20035;-75
2022/05/26 03:18:20;;;;;;;26.05;13.18;;;;;;;14.82;77.27;101777.03;4970782;28;20042;-76
2022/05/26 03:20:45;;;;;;;27.63;12.85;;;;;;;14.80;77.91;101783.97;4972295;28;20030;-76
2022/05/26 03:23:10;;;;;;;30.08;12.70;;;;;;;14.79;77.46;101783.09;4971782;28;20026;-74
2022/05/26 03:25:36;;;;;;;30.27;13.23;;;;;;;14.76;77.87;101789.16;4972487;28;20502;-75
2022/05/26 03:28:01;;;;;;;28.30;12.82;;;;;;;14.78;77.58;101789.19;4993363;28;20037;-77
2022/05/26 03:30:26;;;;;;;27.80;11.60;;;;;;;14.80;77.23;101794.47;4971349;28;20777;-76
2022/05/26 03:32:51;;;;;;;24.83;11.75;;;;;;;14.80;76.16;101795.31;4972679;28;20030;-76
2022/05/26 03:40:57;;;;;;;33.95;13.02;;;;;;;14.72;78.01;101800.41;4971300;28;20450;-74
2022/05/26 03:43:29;;;;;;;27.33;12.10;;;;;;;14.74;77.89;101810.94;4970117;28;20031;-76
2022/05/26 03:45:57;;;;;;;32.13;12.30;;;;;;;14.73;76.73;101810.06;4970931;28;20057;-77
2022/05/26 03:48:22;;;;;;;29.73;11.77;;;;;;;14.72;77.80;101807.41;4970864;28;20106;-76
2022/05/26 03:50:47;;;;;;;27.15;11.43;;;;;;;14.73;77.65;101815.31;4971928;28;20105;-76
2022/05/26 03:53:13;;;;;;;23.63;10.77;;;;;;;14.73;77.99;101811.78;4999223;28;20023;-76
2022/05/26 03:55:38;;;;;;;34.17;11.27;;;;;;;14.74;76.75;101816.19;4972318;28;20027;-75
2022/05/26 03:58:04;;;;;;;28.92;10.77;;;;;;;14.72;77.75;101812.66;4971475;28;20054;-76
2022/05/26 04:00:30;;;;;;;27.85;11.00;;;;;;;14.71;76.93;101818.75;4972056;28;20027;-75
2022/05/26 04:02:55;;;;;;;26.33;11.00;;;;;;;14.71;76.30;101819.63;4971269;28;20043;-75
2022/05/26 04:05:21;;;;;;;31.25;11.95;;;;;;;14.68;77.64;101822.19;4971970;28;20446;-77
2022/05/26 04:07:47;;;;;;;34.97;11.43;;;;;;;14.69;77.31;101825.72;4970615;28;20420;-76
2022/05/26 04:10:13;;;;;;;28.05;10.73;;;;;;;14.65;78.12;101827.38;4972069;28;20034;-76
2022/05/26 04:12:39;;;;;;;26.15;9.75;;;;;;;14.66;77.69;101834.41;4971275;28;20023;-75
2022/05/26 04:15:06;;;;;;;28.70;11.20;;;;;;;14.65;78.06;101832.63;4971758;28;20027;-75
2022/05/26 04:17:32;;;;;;;28.90;11.15;;;;;;;14.63;78.30;101834.34;4969850;28;20540;-75
2022/05/26 04:19:57;;;;;;;24.25;10.20;;;;;;;14.61;78.32;101835.97;4970997;28;20560;-75
2022/05/26 04:22:23;;;;;;;28.20;10.85;;;;;;;14.60;78.54;101835.09;4970746;28;20030;-75
2022/05/26 04:24:52;;;;;;;26.13;10.57;;;;;;;14.63;77.92;101843.91;4971730;28;20030;-74
2022/05/26 04:27:21;;;;;;;26.13;10.15;;;;;;;14.64;77.78;101845.69;4971182;28;20649;-76
2022/05/26 04:29:46;;;;;;;34.63;11.43;;;;;;;14.64;78.17;101837.81;4971034;28;20483;-75
2022/05/26 04:32:12;;;;;;;32.33;11.00;;;;;;;14.62;78.15;101842.16;4970816;28;20026;-77
2022/05/26 04:34:38;;;;;;;24.48;9.85;;;;;;;14.63;77.46;101843.91;5002905;28;20046;-76
2022/05/26 04:37:04;;;;;;;32.75;10.10;;;;;;;14.61;78.13;101849.09;4971084;28;20035;-76
2022/05/26 04:39:29;;;;;;;28.30;9.80;;;;;;;14.60;78.51;101849.97;4970604;28;20053;-75
2022/05/26 04:41:58;;;;;;;32.53;10.40;;;;;;;14.59;78.32;101845.56;4971751;28;20027;-76
2022/05/26 04:44:23;;;;;;;24.17;9.90;;;;;;;14.62;76.50;101853.53;4970380;28;20027;-76
2022/05/26 04:46:49;;;;;;;28.88;10.65;;;;;;;14.60;78.07;101857.84;4968118;28;20047;-75
2022/05/26 04:49:14;;;;;;;30.30;10.05;;;;;;;14.60;78.48;101855.22;4970428;28;20035;-75
2022/05/26 04:51:39;;;;;;;26.48;9.40;;;;;;;14.61;77.72;101864.84;4971889;28;20031;-75
2022/05/26 04:57:27;;;;;;;25.48;10.18;;;;;;;14.60;78.43;101870.94;4972838;28;20097;-76
2022/05/26 04:59:54;;;;;;;25.65;9.48;;;;;;;14.60;78.41;101869.19;4972464;28;20414;-75
2022/05/26 05:02:24;;;;;;;29.13;9.65;;;;;;;14.60;78.71;101870.94;4973535;28;20030;-75
2022/05/26 05:04:50;;;;;;;26.63;9.52;;;;;;;14.62;78.75;101885.00;4975439;28;20030;-76
2022/05/26 05:07:17;;;;;;;30.02;10.32;;;;;;;14.59;79.16;101879.66;4965310;28;20038;-76
2022/05/26 05:09:43;;;;;;;30.90;10.38;;;;;;;14.60;78.78;101886.69;4974756;28;20482;-75
2022/05/26 05:12:12;;;;;;;24.40;9.18;;;;;;;14.62;78.24;101890.25;4975234;28;20114;-77
2022/05/26 05:14:43;;;;;;;30.98;9.88;;;;;;;14.64;78.88;101899.03;4974732;28;20042;-76
2022/05/26 05:17:10;;;;;;;28.52;9.50;;;;;;;14.64;78.88;101892.91;4974255;28;20553;-75
2022/05/26 05:19:35;;;;;;;23.42;9.60;;;;;;;14.63;78.74;101902.53;4972758;28;20410;-75
2022/05/26 05:22:07;;;;;;;27.35;9.55;;;;;;;14.65;78.96;101895.56;4974228;28;20027;-76
2022/05/26 05:24:59;;;;;;;27.00;10.13;;;;;;;14.67;78.38;101899.13;4974290;28;20070;-75
2022/05/26 05:27:29;;;;;;;21.77;10.43;;;;;;;14.67;79.43;101903.47;4971450;28;20050;-75
2022/05/26 05:29:58;;;;;;;28.15;10.23;;;;;;;14.68;79.44;101910.50;4975175;28;20536;-75
2022/05/26 05:32:32;;;;;;;27.13;11.05;;;;;;;14.70;78.10;101904.44;4973784;28;20015;-75
2022/05/26 05:35:03;;;;;;;23.83;9.98;;;;;;;14.72;78.89;101914.97;4967324;28;20039;-75
2022/05/26 05:37:33;;;;;;;29.25;10.52;;;;;;;14.73;78.74;101917.63;4974080;28;20034;-75
2022/05/26 05:40:00;;;;;;;20.48;9.38;;;;;;;14.74;79.19;101918.50;4973881;28;20033;-76
2022/05/26 05:42:26;;;;;;;27.60;10.05;;;;;;;14.75;79.17;101926.41;4973593;28;20379;-75
2022/05/26 05:44:51;;;;;;;26.63;10.05;;;;;;;14.77;78.38;101922.09;4972952;28;20038;-76
2022/05/26 05:47:17;;;;;;;31.30;10.60;;;;;;;14.78;78.45;101918.63;4972377;28;20390;-76
2022/05/26 05:49:44;;;;;;;27.10;9.65;;;;;;;14.79;79.09;101919.53;4973716;28;20081;-75
2022/05/26 05:52:13;;;;;;;24.38;9.68;;;;;;;14.78;79.12;101923.84;4973067;28;20027;-76
2022/05/26 05:54:39;;;;;;;32.35;10.38;;;;;;;14.81;79.27;101938.78;4974572;28;20486;-75
2022/05/26 05:57:05;;;;;;;27.55;10.50;;;;;;;14.80;79.33;101925.66;4973423;28;20549;-76
2022/05/26 05:59:31;;;;;;;32.80;11.35;;;;;;;14.80;79.34;101925.66;4973685;28;20030;-75
2022/05/26 06:01:57;;;;;;;26.92;10.25;;;;;;;14.84;79.11;101933.63;4973216;28;20401;-76
2022/05/26 06:04:22;;;;;;;25.50;10.80;;;;;;;14.86;79.63;101937.19;4964738;28;20410;-75
2022/05/26 06:06:48;;;;;;;30.80;10.65;;;;;;;14.90;77.69;101938.13;4970568;28;20453;-77
2022/05/26 06:09:15;;;;;;;28.80;10.43;;;;;;;14.92;78.09;101946.94;4974206;28;20031;-75
2022/05/26 06:11:41;;;;;;;28.13;11.32;;;;;;;14.94;79.14;101958.34;4973268;28;20014;-76
2022/05/26 06:14:06;;;;;;;29.15;10.60;;;;;;;14.97;78.93;101950.53;4974113;28;20038;-77
2022/05/26 06:16:32;;;;;;;28.40;11.00;;;;;;;14.99;78.70;101948.84;4966946;28;20062;-77
2022/05/26 06:18:57;;;;;;;25.52;9.80;;;;;;;15.00;78.36;101941.84;4972248;28;20078;-76
2022/05/26 06:21:22;;;;;;;32.20;11.25;;;;;;;15.02;78.08;101953.25;4973836;28;20166;-75
2022/05/26 06:23:48;;;;;;;29.60;10.55;;;;;;;15.04;79.08;101955.06;4972662;28;20026;-76
2022/05/26 06:26:14;;;;;;;28.23;11.23;;;;;;;15.05;78.36;101956.88;4972378;28;20082;-76
2022/05/26 06:31:23;;;;;;;34.47;13.05;;;;;;;15.07;78.39;101963.03;4973210;28;20069;-75
2022/05/26 06:39:17;;;;;;;32.15;13.77;;;;;;;15.17;77.59;101969.38;4973877;28;20504;-77
2022/05/26 06:44:26;;;;;;;28.60;14.82;;;;;;;15.21;77.35;101972.97;4973505;28;20118;-76
2022/05/26 06:46:52;;;;;;;28.95;15.98;;;;;;;15.22;77.36;101974.72;4992433;28;20030;-75
2022/05/26 06:49:17;;;;;;;29.67;14.82;;;;;;;15.26;77.11;101972.19;4973343;28;20333;-75
2022/05/26 06:51:44;;;;;;;31.85;16.15;;;;;;;15.31;76.61;101980.19;4972685;28;20022;-77
2022/05/26 06:54:10;;;;;;;31.00;14.82;;;;;;;15.36;76.94;101983.78;4973017;28;20026;-76
2022/05/26 06:56:36;;;;;;;29.27;14.55;;;;;;;15.45;76.86;101984.03;4973372;28;20110;-76
2022/05/26 06:59:02;;;;;;;28.52;14.15;;;;;;;15.52;77.31;101990.28;4971891;28;20375;-76
2022/05/26 07:01:27;;;;;;;28.52;14.50;;;;;;;15.59;75.80;101989.56;5003720;28;20062;-76
2022/05/26 07:03:52;;;;;;;32.63;14.50;;;;;;;15.65;75.63;101992.31;4973033;28;20031;-76
2022/05/26 07:06:20;;;;;;;30.40;14.75;;;;;;;15.72;77.08;101990.69;4972958;28;20534;-76
2022/05/26 07:08:47;;;;;;;32.38;14.38;;;;;;;15.77;75.22;101994.31;4973174;28;20034;-77
2022/05/26 07:11:14;;;;;;;28.13;14.27;;;;;;;15.81;75.13;101995.28;4972549;28;20089;-76
2022/05/26 07:13:40;;;;;;;26.45;14.48;;;;;;;15.84;74.69;102000.59;4972068;28;20030;-78
2022/05/26 07:16:07;;;;;;;27.20;14.55;;;;;;;15.84;75.34;102002.34;4972111;28;20026;-77
2022/05/26 07:18:32;;;;;;;27.98;14.70;;;;;;;15.82;73.45;102010.22;4971412;28;20069;-77
2022/05/26 07:20:57;;;;;;;26.85;14.48;;;;;;;15.84;74.54;102018.13;4972866;28;20019;-76
2022/05/26 07:23:23;;;;;;;25.63;14.13;;;;;;;15.82;73.96;102016.34;4971642;28;20493;-76
2022/05/26 07:25:48;;;;;;;27.70;14.52;;;;;;;15.82;74.11;102011.09;4971435;28;20047;-76
2022/05/26 07:28:14;;;;;;;23.77;14.23;;;;;;;15.82;72.33;102012.84;4971922;28;20515;-77
2022/05/26 07:30:39;;;;;;;27.20;15.02;;;;;;;15.84;73.14;102026.00;4972785;28;20031;-77
2022/05/26 07:33:05;;;;;;;27.83;14.63;;;;;;;15.91;73.23;102022.66;4971495;28;20026;-76
2022/05/26 07:35:30;;;;;;;30.85;14.82;;;;;;;15.98;74.04;102021.94;4970364;28;20470;-77
2022/05/26 07:43:27;;;;;;;24.23;13.65;;;;;;;16.17;73.24;102031.06;4971614;28;20417;-76
2022/05/26 07:45:53;;;;;;;28.60;15.70;;;;;;;16.17;72.42;102037.19;4971532;28;20034;-75
2022/05/26 07:48:18;;;;;;;29.30;15.57;;;;;;;16.19;72.88;102036.34;4971877;28;20031;-75
2022/05/26 07:50:43;;;;;;;26.83;14.90;;;;;;;16.16;71.97;102040.72;4967071;28;20445;-75
2022/05/26 07:53:09;;;;;;;25.60;14.32;;;;;;;16.13;72.39;102039.75;4964355;28;20030;-75
2022/05/26 07:55:34;;;;;;;23.15;14.10;;;;;;;16.13;71.74;102034.47;4962781;28;20478;-75
2022/05/26 07:57:59;;;;;;;27.05;14.27;;;;;;;16.15;72.35;102038.06;4970253;28;20061;-76
2022/05/26 08:00:25;;;;;;;27.67;14.20;;;;;;;16.15;71.99;102041.56;5002806;28;20039;-76
2022/05/26 08:02:50;;;;;;;30.92;15.57;;;;;;;16.11;71.69;102044.97;4971771;28;20077;-76
2022/05/26 08:05:16;;;;;;;26.88;15.48;;;;;;;16.06;71.73;102048.38;5003220;28;20064;-76
2022/05/26 08:07:43;;;;;;;26.42;15.98;;;;;;;16.02;72.85;102041.25;4971280;28;20030;-76
2022/05/26 08:10:09;;;;;;;26.95;15.55;;;;;;;16.07;73.57;102051.03;4971707;28;20054;-75
2022/05/26 08:12:34;;;;;;;24.63;14.48;;;;;;;16.13;73.41;102045.91;4970508;28;20027;-75
2022/05/26 08:15:00;;;;;;;26.92;15.00;;;;;;;16.24;72.95;102047.84;4972121;28;20457;-75
2022/05/26 08:17:25;;;;;;;25.08;15.50;;;;;;;16.34;73.20;102049.81;4971015;28;20031;-76
2022/05/26 08:19:51;;;;;;;28.45;14.63;;;;;;;16.39;71.88;102042.88;4970563;28;20462;-75
2022/05/26 08:22:18;;;;;;;27.90;15.48;;;;;;;16.43;71.17;102044.72;4971542;28;20041;-74
2022/05/26 08:24:50;;;;;;;26.20;15.00;;;;;;;16.48;72.00;102052.69;4968743;28;20030;-76
2022/05/26 08:27:15;;;;;;;25.48;14.70;;;;;;;16.51;72.60;102051.00;4966183;28;20066;-75
2022/05/26 08:29:41;;;;;;;21.95;13.98;;;;;;;16.55;71.25;102048.44;4969643;28;20069;-74
2022/05/26 08:32:07;;;;;;;23.15;13.32;;;;;;;16.62;71.58;102053.81;4966422;28;20130;-68
2022/05/26 08:34:33;;;;;;;20.33;12.73;;;;;;;16.69;70.22;102046.94;4969935;28;20101;-67
2022/05/26 08:36:58;;;;;;;21.42;12.18;;;;;;;16.75;70.38;102060.19;4969515;28;20030;-68
2022/05/26 08:39:24;;;;;;;20.50;12.70;;;;;;;16.77;69.05;102061.13;4970147;28;20089;-68
2022/05/26 08:41:52;;;;;;;20.65;13.32;;;;;;;16.75;69.33;102062.81;4970544;28;20393;-68
2022/05/26 08:44:34;;;;;;;21.70;13.02;;;;;;;16.79;70.54;102062.03;4971542;28;20030;-66
2022/05/26 08:47:21;;;;;;;19.73;13.05;;;;;;;16.84;71.18;102065.63;4970097;28;20031;-67
2022/05/26 08:50:00;;;;;;;19.85;13.48;;;;;;;16.91;70.30;102071.91;4970909;28;20023;-68
2022/05/26 08:52:40;;;;;;;22.10;13.40;;;;;;;16.98;70.10;102070.28;4997404;28;20027;-67
2022/05/26 08:55:15;;;;;;;22.85;14.05;;;;;;;17.04;69.19;102070.38;4967559;28;20109;-68
2022/05/26 08:57:49;;;;;;;24.75;14.50;;;;;;;17.09;70.31;102073.97;4970048;28;20041;-68
2022/05/26 09:00:17;;;;;;;21.33;13.85;;;;;;;17.14;69.54;102067.03;4970504;28;20573;-69
2022/05/26 09:02:43;;;;;;;24.02;13.77;;;;;;;17.15;67.81;102074.06;4970578;28;20093;-69
2022/05/26 09:05:18;;;;;;;23.85;13.07;;;;;;;17.12;67.59;102074.03;4969984;28;20026;-67
2022/05/26 09:12:55;;;;;;;22.83;15.13;;;;;;;17.12;68.96;102083.66;4962414;28;20042;-67
2022/05/26 09:14:22;;;;;;;25.58;15.02;;;;;;;17.23;68.53;102070.66;4971212;28;20101;-67
2022/05/26 09:16:47;;;;;;;26.48;15.38;;;;;;;17.25;67.62;102069.84;4969935;28;20038;-68
2022/05/26 09:19:21;;;;;;;24.75;13.27;;;;;;;17.23;66.40;102076.81;4970417;28;20109;-67
2022/05/26 09:21:49;;;;;;;22.90;13.00;;;;;;;17.23;66.07;102086.47;4970546;28;20474;-67
2022/05/26 09:24:31;;;;;;;23.57;14.97;;;;;;;17.30;68.10;102080.44;4970288;28;20059;-67
2022/05/26 09:26:59;;;;;;;23.02;14.07;;;;;;;17.30;66.89;102081.31;4970286;28;20198;-67
2022/05/26 09:29:32;;;;;;;30.67;17.83;;;;;;;17.31;65.96;102092.75;4970301;28;20386;-67
2022/05/26 09:32:00;;;;;;;26.63;17.15;;;;;;;17.34;66.01;102090.16;4971220;28;20031;-68
2022/05/26 09:34:28;;;;;;;28.08;16.88;;;;;;;17.36;66.01;102101.59;4997474;28;20042;-68
2022/05/26 09:37:02;;;;;;;23.15;15.15;;;;;;;17.33;65.83;102115.63;4971330;28;20452;-68
2022/05/26 09:39:34;;;;;;;27.85;17.15;;;;;;;17.37;66.27;102109.53;4969357;28;20482;-69
2022/05/26 09:42:00;;;;;;;31.00;19.20;;;;;;;17.37;65.43;102112.16;4972857;28;20030;-68
2022/05/26 09:44:55;;;;;;;33.90;19.60;;;;;;;17.41;66.53;102109.56;4973387;28;20037;-67
2022/05/26 09:47:37;;;;;;;31.52;19.80;;;;;;;17.43;65.29;102107.88;4974416;28;20014;-67
2022/05/26 09:50:08;;;;;;;34.95;19.65;;;;;;;17.44;64.36;102109.63;4973425;28;20030;-67
2022/05/26 09:52:45;;;;;;;28.75;17.98;;;;;;;17.46;64.54;102103.53;4972791;28;20033;-67
2022/05/26 09:55:16;;;;;;;25.20;17.30;;;;;;;17.53;63.24;102102.75;4972769;28;20038;-68
2022/05/26 09:57:42;;;;;;;27.70;17.58;;;;;;;17.57;64.13;102108.97;4974127;28;20029;-69
2022/05/26 10:00:46;;;;;;;19.60;11.80;;;;;;;17.63;63.63;102109.06;4972646;28;20035;-69
2022/05/26 10:03:30;;;;;;;18.48;12.38;;;;;;;17.67;63.66;102117.88;4960197;28;20318;-68
2022/05/26 10:06:32;;;;;;;23.48;15.10;;;;;;;17.74;65.38;102114.47;4973810;28;20106;-68
2022/05/26 10:09:09;;;;;;;36.22;21.55;;;;;;;17.83;63.46;102117.25;4974048;28;20151;-67
2022/05/26 10:11:41;;;;;;;35.15;22.80;;;;;;;17.95;65.64;102115.69;4973313;28;20132;-68
2022/05/26 10:14:41;;;;;;;29.25;21.88;;;;;;;18.08;67.00;102117.63;4973889;28;20035;-68
2022/05/26 10:17:35;;;;;;;28.17;18.17;;;;;;;18.14;62.78;102115.03;4972721;28;20105;-70
2022/05/26 10:20:08;;;;;;;27.33;16.85;;;;;;;18.22;62.50;102120.44;4973405;28;20134;-68
2022/05/26 10:22:47;;;;;;;23.92;17.95;;;;;;;18.23;62.47;102117.81;4972839;28;20041;-68
2022/05/26 10:25:37;;;;;;;26.73;18.08;;;;;;;18.29;62.82;102121.38;4972009;28;20051;-67
2022/05/26 10:28:20;;;;;;;28.85;18.00;;;;;;;18.35;63.11;102110.88;4982031;28;20121;-68
2022/05/26 10:31:07;;;;;;;25.40;18.05;;;;;;;18.36;63.83;102104.75;4973767;28;20112;-68
2022/05/26 10:33:46;;;;;;;28.35;18.85;;;;;;;18.42;63.54;102112.72;4972159;28;20022;-68
2022/05/26 10:36:54;;;;;;;29.35;19.30;;;;;;;18.53;63.84;102123.44;4967902;28;20037;-67
2022/05/26 10:39:38;;;;;;;27.90;17.83;;;;;;;18.48;59.07;102112.81;4972636;28;20105;-67
2022/05/26 10:42:11;;;;;;;25.88;18.00;;;;;;;18.45;61.12;102118.06;4971477;28;20038;-68
2022/05/26 10:45:14;;;;;;;29.02;18.83;;;;;;;18.42;61.92;102118.00;4963434;28;20482;-67
2022/05/26 10:48:03;;;;;;;29.77;19.75;;;;;;;18.36;62.39;102112.66;4970719;28;20040;-68
2022/05/26 10:50:41;;;;;;;27.13;18.95;;;;;;;18.40;61.17;102104.78;4967767;28;20027;-68
2022/05/26 10:53:20;;;;;;;23.55;16.33;;;;;;;18.46;60.30;102111.91;4967910;28;20046;-68
2022/05/26 10:56:10;;;;;;;25.98;17.13;;;;;;;18.45;60.37;102112.78;4971752;28;20069;-68
2022/05/26 10:58:41;;;;;;;27.27;19.05;;;;;;;18.48;59.81;102104.91;4966828;28;20045;-68
2022/05/26 11:01:22;;;;;;;30.20;19.95;;;;;;;18.47;61.14;102108.41;4973116;28;20494;-68
2022/05/26 11:03:53;;;;;;;25.60;18.40;;;;;;;18.46;60.27;102114.53;4972528;28;20227;-69
2022/05/26 11:06:26;;;;;;;28.85;18.98;;;;;;;18.49;60.46;102118.97;4971883;28;20046;-67
2022/05/26 11:09:00;;;;;;;29.75;19.60;;;;;;;18.49;60.86;102126.91;4973147;28;20050;-68
2022/05/26 11:11:47;;;;;;;30.42;20.45;;;;;;;18.47;61.09;102121.59;4972195;28;20026;-68
2022/05/26 11:17:21;;;;;;;27.98;19.50;;;;;;;18.46;61.02;102129.50;4973133;28;20027;-68
2022/05/26 11:17:22;;;;;;;30.92;19.98;;;;;;;18.48;62.20;102123.38;4971431;28;20097;-68
2022/05/26 11:19:53;;;;;;;23.77;16.30;;;;;;;18.50;60.99;102126.03;4987081;28;20038;-67
2022/05/26 11:22:19;;;;;;;24.95;17.02;;;;;;;18.49;60.68;102124.25;4972587;28;20042;-68
2022/05/26 11:24:49;;;;;;;24.85;17.08;;;;;;;18.46;60.37;102117.19;4971976;28;20037;-69
2022/05/26 11:27:36;;;;;;;28.52;18.90;;;;;;;18.40;60.56;102123.28;4968205;28;20043;-67
2022/05/26 11:36:07;;;;;;;29.15;18.95;;;;;;;18.38;60.98;102118.88;4971009;28;20031;-68
2022/05/26 11:38:27;;;;;;;25.08;17.90;;;;;;;18.39;59.49;102107.41;4971763;28;20114;-68
2022/05/26 11:41:05;;;;;;;29.33;18.40;;;;;;;18.41;60.01;102116.25;4972289;28;20026;-69
2022/05/26 11:43:40;;;;;;;29.75;18.95;;;;;;;18.40;58.33;102109.19;4971829;28;20043;-68
2022/05/26 11:46:08;;;;;;;27.30;17.98;;;;;;;18.38;59.30;102105.69;4971223;28;20031;-68
2022/05/26 11:48:33;;;;;;;27.10;17.98;;;;;;;18.36;58.50;102105.63;4972169;28;20053;-68
2022/05/26 11:51:00;;;;;;;32.75;19.27;;;;;;;18.35;59.67;102109.16;4970446;28;20026;-69
2022/05/26 11:53:32;;;;;;;30.25;21.23;;;;;;;18.27;58.90;102102.88;4971989;28;20070;-68
2022/05/26 11:56:04;;;;;;;31.42;20.45;;;;;;;18.21;57.99;102100.19;4971278;28;20047;-67
2022/05/26 11:58:44;;;;;;;36.05;20.88;;;;;;;18.28;60.97;102098.50;4972010;28;20110;-68
2022/05/26 12:01:22;;;;;;;29.98;19.95;;;;;;;18.37;61.46;102102.13;4969162;28;20073;-69
2022/05/26 12:03:47;;;;;;;34.33;20.88;;;;;;;18.47;59.56;102084.66;4971335;28;20387;-68
2022/05/26 12:06:15;;;;;;;35.07;20.43;;;;;;;18.56;59.30;102094.41;4970247;28;20509;-68
2022/05/26 12:08:53;;;;;;;32.22;20.13;;;;;;;18.66;59.66;102093.63;4971247;28;20377;-68
2022/05/26 12:11:22;;;;;;;32.13;20.23;;;;;;;18.75;60.20;102085.78;4970873;28;20130;-67